Terminal Aerodrome Forecast
Issued by NWS

Home | Current Version | Previous Version | Text Only | Print | Product List | Glossary On
Versions: 1 2 3 4 5 6 7 8 9 10 11 12
954
FTUS45 KFGZ 281138
TAFPRC
TAF
KPRC 281138Z 2812/2912 21005KT P6SM BKN130 PROB30 2821/2901
      VRB20G30KT 6SM TSRA BKN060CB=

USA.gov is the U.S. government's official web portal to all federal, state and local government web resources and services.